International Virtual Aviation Organisation

Russian Federation and Kazakhstan MCD

 
UUDD 031930Z 16005MPS 1800 SHSN BKN028CB M05/M07 Q1032 RESHSN R14R/490237 TEMPO 1000 SHSN
QNH:(hPa/inHg/mmHg)1032 / 30.47 / 774
QFE:(hPa/inHg/mmHg)1010 / 29.83 / 758
Temperature-5
Dew Point-7
Visibility1000
WeatherShowers Snow;Showers Snow
Cloud CoverBKN (2800);
Transition Altitude10000 ft.
Transition LevelFL110
SQUAWK